createdAt,value
2019-01-18T00:02:13.725Z,100091.07
2019-01-18T00:04:47.214Z,100085.75
2019-01-18T00:07:21.868Z,100083.31
2019-01-18T00:09:56.729Z,100093.34
2019-01-18T00:12:30.464Z,100079.23
2019-01-18T00:15:04.339Z,100082.66
2019-01-18T00:17:37.917Z,100084.72
2019-01-18T00:20:17.958Z,100084.94
2019-01-18T00:22:51.951Z,100081.48
2019-01-18T00:25:25.894Z,100081.48
2019-01-18T00:27:59.483Z,100080.02
2019-01-18T00:30:33.195Z,100078.35
2019-01-18T00:33:06.850Z,100073.91
2019-01-18T00:35:40.472Z,100062.60
2019-01-18T00:38:15.413Z,100061.88
2019-01-18T00:40:48.903Z,100067.89
2019-01-18T00:43:22.654Z,100059.48
2019-01-18T00:45:56.293Z,100050.36
2019-01-18T00:48:30.440Z,100064.02
2019-01-18T00:51:04.305Z,100057.39
2019-01-18T00:53:38.250Z,100055.09
2019-01-18T00:56:12.267Z,100052.15
2019-01-18T00:58:46.029Z,100044.55
2019-01-18T01:01:20.648Z,100048.97
2019-01-18T01:03:54.567Z,100052.81
2019-01-18T01:06:28.139Z,100054.06
2019-01-18T01:09:01.744Z,100053.84
2019-01-18T01:11:37.503Z,100050.50
2019-01-18T01:14:11.021Z,100043.53
2019-01-18T01:16:49.373Z,100043.89
2019-01-18T01:19:23.186Z,100035.02
2019-01-18T01:21:57.148Z,100037.91
2019-01-18T01:24:38.460Z,100038.17
2019-01-18T01:27:12.303Z,100030.77
2019-01-18T01:29:46.206Z,100028.24
2019-01-18T01:32:20.893Z,100037.05
2019-01-18T01:34:54.303Z,100036.32
2019-01-18T01:37:29.500Z,100027.95
2019-01-18T01:40:04.201Z,100032.63
2019-01-18T01:42:38.541Z,100034.56
2019-01-18T01:45:13.350Z,100029.49
2019-01-18T01:47:48.064Z,100036.10
2019-01-18T01:50:26.704Z,100031.41
2019-01-18T01:53:00.638Z,100036.95
2019-01-18T01:55:36.028Z,100027.47
2019-01-18T01:58:10.118Z,100033.70
2019-01-18T02:00:43.756Z,100032.42
2019-01-18T02:03:18.564Z,100035.61
2019-01-18T02:05:52.708Z,100036.48
2019-01-18T02:08:26.906Z,100031.37
2019-01-18T02:11:00.298Z,100013.34
2019-01-18T02:13:33.901Z,100008.34
2019-01-18T02:16:07.885Z,100002.00
2019-01-18T02:18:41.554Z,99990.22
2019-01-18T02:21:14.967Z,99989.59
2019-01-18T02:23:48.731Z,99992.11
2019-01-18T02:26:22.897Z,99997.67
2019-01-18T02:28:56.503Z,99986.69
2019-01-18T02:31:30.281Z,99988.52
2019-01-18T02:34:04.000Z,99982.02
2019-01-18T02:36:39.093Z,99985.03
2019-01-18T02:39:13.280Z,99980.32
2019-01-18T02:41:46.967Z,99975.55
2019-01-18T02:44:20.910Z,99976.50
2019-01-18T02:46:55.014Z,99968.76
2019-01-18T02:49:28.548Z,99966.22
2019-01-18T02:52:03.666Z,99961.39
2019-01-18T02:54:37.396Z,99963.21
2019-01-18T02:57:11.357Z,99963.21
2019-01-18T02:59:45.334Z,99971.91
2019-01-18T03:02:18.934Z,99964.56
2019-01-18T03:04:54.338Z,99962.25
2019-01-18T03:07:29.949Z,99958.41
2019-01-18T03:10:04.696Z,99962.53
2019-01-18T03:12:40.318Z,99953.08
2019-01-18T03:15:16.754Z,99952.75
2019-01-18T03:17:50.625Z,99950.45
2019-01-18T03:20:24.275Z,99945.75
2019-01-18T03:22:57.783Z,99939.56
2019-01-18T03:25:31.652Z,99939.94
2019-01-18T03:28:05.270Z,99929.48
2019-01-18T03:30:46.585Z,99932.39
2019-01-18T03:33:20.456Z,99916.48
2019-01-18T03:35:57.783Z,99918.45
2019-01-18T03:38:32.997Z,99928.52
2019-01-18T03:41:07.593Z,99924.27
2019-01-18T03:43:42.087Z,99922.46
2019-01-18T03:46:16.107Z,99924.15
2019-01-18T03:48:53.194Z,99916.80
2019-01-18T03:51:26.706Z,99915.95
2019-01-18T03:54:00.836Z,99912.78
2019-01-18T03:56:34.647Z,99912.56
2019-01-18T03:59:08.575Z,99907.03
2019-01-18T04:01:44.803Z,99902.52
2019-01-18T04:04:19.315Z,99893.75
2019-01-18T04:06:53.112Z,99888.02
2019-01-18T04:09:26.640Z,99887.11
2019-01-18T04:12:00.728Z,99879.39
2019-01-18T04:14:35.427Z,99871.99
2019-01-18T04:17:09.390Z,99873.97
2019-01-18T04:19:50.227Z,99870.28
2019-01-18T04:22:24.456Z,99867.88
2019-01-18T04:24:58.782Z,99871.27
2019-01-18T04:27:32.653Z,99865.60
2019-01-18T04:30:10.838Z,99860.13
2019-01-18T04:32:45.527Z,99856.59
2019-01-18T04:35:19.702Z,99857.20
2019-01-18T04:37:54.989Z,99849.06
2019-01-18T04:40:29.425Z,99849.06
2019-01-18T04:43:03.353Z,99846.52
2019-01-18T04:45:37.146Z,99848.16
2019-01-18T04:48:13.530Z,99839.25
2019-01-18T04:50:46.063Z,99847.95
2019-01-18T04:53:19.802Z,99844.88
2019-01-18T04:55:53.519Z,99845.86
2019-01-18T04:58:29.786Z,99837.36
2019-01-18T05:01:04.429Z,99834.11
2019-01-18T05:03:38.433Z,99833.59
2019-01-18T05:06:14.383Z,99830.65
2019-01-18T05:08:49.699Z,99833.65
2019-01-18T05:11:23.855Z,99825.33
2019-01-18T05:13:58.221Z,99823.07
2019-01-18T05:16:33.668Z,99818.80
2019-01-18T05:19:07.090Z,99808.44
2019-01-18T05:21:41.285Z,99807.66
2019-01-18T05:24:16.254Z,99804.19
2019-01-18T05:26:52.110Z,99791.36
2019-01-18T05:29:28.600Z,99791.36
2019-01-18T05:32:03.658Z,99792.05
2019-01-18T05:34:38.339Z,99784.34
2019-01-18T05:37:12.724Z,99780.98
2019-01-18T05:39:47.391Z,99785.33
2019-01-18T05:42:24.541Z,99791.40
2019-01-18T05:45:01.428Z,99789.81
2019-01-18T05:47:35.583Z,99789.87
2019-01-18T05:50:15.171Z,99793.66
2019-01-18T05:52:50.587Z,99796.38
2019-01-18T05:55:25.734Z,99786.34
2019-01-18T05:57:59.912Z,99788.52
2019-01-18T06:00:35.126Z,99786.88
2019-01-18T06:03:10.055Z,99791.15
2019-01-18T06:05:44.514Z,99788.69
2019-01-18T06:08:18.899Z,99788.88
2019-01-18T06:10:52.761Z,99788.30
2019-01-18T06:13:29.299Z,99784.34
2019-01-18T06:16:04.215Z,99788.55
2019-01-18T06:18:37.821Z,99786.55
2019-01-18T06:21:12.549Z,99787.70
2019-01-18T06:23:47.671Z,99782.33
2019-01-18T06:26:21.315Z,99781.17
2019-01-18T06:28:56.253Z,99783.52
2019-01-18T06:31:29.938Z,99784.25
2019-01-18T06:34:05.294Z,99786.99
2019-01-18T06:36:39.362Z,99780.05
2019-01-18T06:39:13.142Z,99785.77
2019-01-18T06:41:50.506Z,99790.94
2019-01-18T06:44:24.182Z,99790.42
2019-01-18T06:46:58.071Z,99790.03
2019-01-18T06:49:31.467Z,99792.45
2019-01-18T06:52:06.049Z,99791.41
2019-01-18T06:54:40.158Z,99790.28
2019-01-18T06:57:14.481Z,99790.28
2019-01-18T06:59:50.250Z,99789.38
2019-01-18T07:02:24.194Z,99790.79
2019-01-18T07:05:05.118Z,99789.95
2019-01-18T07:07:38.878Z,99789.92
2019-01-18T07:10:21.040Z,99798.45
2019-01-18T07:12:54.257Z,99794.83
2019-01-18T07:15:30.932Z,99796.56
2019-01-18T07:18:29.798Z,99801.48
2019-01-18T07:21:03.817Z,99799.47
2019-01-18T07:23:39.860Z,99806.01
2019-01-18T07:26:13.169Z,99799.24
2019-01-18T07:28:46.934Z,99798.41
2019-01-18T07:31:20.936Z,99797.64
2019-01-18T07:33:54.824Z,99797.09
2019-01-18T07:36:28.668Z,99802.48
2019-01-18T07:39:02.710Z,99794.46
2019-01-18T07:41:37.364Z,99797.08
2019-01-18T07:44:17.916Z,99795.39
2019-01-18T07:46:54.316Z,99799.39
2019-01-18T07:49:31.169Z,99800.59
2019-01-18T07:52:04.758Z,99802.92
2019-01-18T07:54:41.301Z,99797.78
2019-01-18T07:57:15.459Z,99800.63
2019-01-18T07:59:50.424Z,99795.95
2019-01-18T08:02:24.234Z,99797.98
2019-01-18T08:05:06.461Z,99790.77
2019-01-18T08:07:40.409Z,99792.55
2019-01-18T08:10:19.575Z,99792.78
2019-01-18T08:12:53.867Z,99799.50
2019-01-18T08:15:35.116Z,99798.41
2019-01-18T08:18:09.492Z,99798.19
2019-01-18T08:20:44.025Z,99797.00
2019-01-18T08:23:31.970Z,99797.09
2019-01-18T08:26:06.852Z,99794.34
2019-01-18T08:28:49.105Z,99795.81
2019-01-18T08:31:28.684Z,99798.06
2019-01-18T08:33:58.603Z,99800.60
2019-01-18T08:36:36.257Z,99801.84
2019-01-18T08:39:12.724Z,99803.34
2019-01-18T08:41:56.298Z,99803.94
2019-01-18T08:44:30.358Z,99805.64
2019-01-18T08:47:05.570Z,99810.30
2019-01-18T08:49:39.364Z,99811.56
2019-01-18T08:52:13.150Z,99808.27
2019-01-18T08:54:48.345Z,99811.41
2019-01-18T08:57:22.008Z,99813.79
2019-01-18T08:59:56.285Z,99804.83
2019-01-18T09:02:30.162Z,99804.99
2019-01-18T09:05:08.762Z,99803.44
2019-01-18T09:07:39.942Z,99799.44
2019-01-18T09:10:21.745Z,99800.47
2019-01-18T09:12:56.440Z,99796.99
2019-01-18T09:15:38.624Z,99802.58
2019-01-18T09:18:13.541Z,99804.66
2019-01-18T09:20:47.418Z,99801.01
2019-01-18T09:23:23.239Z,99804.52
2019-01-18T09:25:58.012Z,99802.52
2019-01-18T09:28:32.478Z,99800.55
2019-01-18T09:31:07.596Z,99799.20
2019-01-18T09:33:51.610Z,99807.70
2019-01-18T09:36:28.709Z,99801.39
2019-01-18T09:39:03.742Z,99802.22
2019-01-18T09:41:40.031Z,99804.36
2019-01-18T09:44:15.197Z,99799.04
2019-01-18T09:46:50.698Z,99804.02
2019-01-18T09:49:24.766Z,99799.67
2019-01-18T09:52:00.614Z,99804.47
2019-01-18T09:54:36.160Z,99804.80
2019-01-18T09:57:13.722Z,99802.83
2019-01-18T09:59:47.736Z,99798.84
2019-01-18T10:02:25.134Z,99799.12
2019-01-18T10:05:00.772Z,99801.45
2019-01-18T10:07:35.182Z,99803.77
2019-01-18T10:10:17.170Z,99798.11
2019-01-18T10:12:52.224Z,99806.39
2019-01-18T10:15:38.290Z,99806.39
2019-01-18T10:18:22.457Z,99798.92
2019-01-18T10:21:01.454Z,99801.88
2019-01-18T10:23:45.548Z,99799.88
2019-01-18T10:26:39.902Z,99799.41
2019-01-18T10:29:17.906Z,99800.86
2019-01-18T10:32:12.020Z,99803.33
2019-01-18T10:34:55.878Z,99805.48
2019-01-18T10:37:29.608Z,99804.64
2019-01-18T10:40:05.521Z,99804.46
2019-01-18T10:42:40.316Z,99806.09
2019-01-18T10:45:18.931Z,99810.02
2019-01-18T10:47:53.300Z,99808.89
2019-01-18T10:50:30.618Z,99798.36
2019-01-18T10:53:09.156Z,99802.34
2019-01-18T10:55:43.415Z,99801.70
2019-01-18T10:58:18.115Z,99796.14
2019-01-18T11:00:57.896Z,99791.81
2019-01-18T11:03:37.248Z,99792.16
2019-01-18T11:06:16.156Z,99785.80
2019-01-18T11:08:53.856Z,99781.58
2019-01-18T11:11:31.034Z,99780.92
2019-01-18T11:14:09.823Z,99786.89
2019-01-18T11:16:43.700Z,99782.75
2019-01-18T11:19:19.623Z,99781.43
2019-01-18T11:21:55.027Z,99780.14
2019-01-18T11:24:31.484Z,99778.72
2019-01-18T11:27:07.839Z,99778.44
2019-01-18T11:29:51.276Z,99780.23
2019-01-18T11:32:27.889Z,99784.07
2019-01-18T11:35:04.928Z,99772.77
2019-01-18T11:37:44.591Z,99773.91
2019-01-18T11:40:26.642Z,99774.20
2019-01-18T11:43:02.433Z,99770.27
2019-01-18T11:45:38.432Z,99772.45
2019-01-18T11:48:13.995Z,99772.09
2019-01-18T11:50:51.908Z,99765.59
2019-01-18T11:53:29.176Z,99758.79
2019-01-18T11:56:04.092Z,99757.98
2019-01-18T11:58:45.244Z,99751.73
2019-01-18T12:01:21.973Z,99749.06
2019-01-18T12:04:01.307Z,99745.73
2019-01-18T12:06:39.625Z,99744.80
2019-01-18T12:09:14.804Z,99753.94
2019-01-18T12:11:50.717Z,99747.94
2019-01-18T12:14:26.165Z,99746.22
2019-01-18T12:17:04.550Z,99748.48
2019-01-18T12:19:40.501Z,99750.58
2019-01-18T12:22:19.952Z,99756.58
2019-01-18T12:24:55.730Z,99751.25
2019-01-18T12:27:36.546Z,99748.20
2019-01-18T12:30:16.189Z,99747.08
2019-01-18T12:32:53.136Z,99752.17
2019-01-18T12:35:32.528Z,99755.73
2019-01-18T12:38:07.835Z,99755.03
2019-01-18T12:40:45.022Z,99758.31
2019-01-18T12:43:20.159Z,99755.13
2019-01-18T12:45:55.700Z,99749.95
2019-01-18T12:48:30.624Z,99749.95
2019-01-18T12:51:05.606Z,99752.38
2019-01-18T12:53:41.617Z,99755.80
2019-01-18T12:56:17.072Z,99755.27
2019-01-18T12:58:56.603Z,99761.65
2019-01-18T13:01:32.462Z,99756.55
2019-01-18T13:04:08.394Z,99760.33
2019-01-18T13:06:44.679Z,99765.97
2019-01-18T13:09:21.301Z,99768.97
2019-01-18T13:12:01.073Z,99768.03
2019-01-18T13:14:37.887Z,99778.12
2019-01-18T13:17:13.285Z,99776.04
2019-01-18T13:19:50.063Z,99775.08
2019-01-18T13:22:30.321Z,99772.35
2019-01-18T13:25:07.904Z,99766.70
2019-01-18T13:27:44.345Z,99764.56
2019-01-18T13:30:21.448Z,99764.58
2019-01-18T13:33:03.916Z,99767.37
2019-01-18T13:35:43.490Z,99764.23
2019-01-18T13:38:23.232Z,99764.83
2019-01-18T13:41:01.226Z,99760.66
2019-01-18T13:43:41.126Z,99758.58
2019-01-18T13:46:19.466Z,99751.16
2019-01-18T13:48:54.848Z,99761.72
2019-01-18T13:51:35.322Z,99750.58
2019-01-18T13:54:11.595Z,99757.37
2019-01-18T13:56:50.112Z,99750.55
2019-01-18T13:59:26.071Z,99743.27
2019-01-18T14:02:06.883Z,99755.48
2019-01-18T14:04:46.859Z,99746.60
2019-01-18T14:07:21.588Z,99744.65
2019-01-18T14:09:57.741Z,99744.76
2019-01-18T14:12:32.565Z,99744.99
2019-01-18T14:15:10.562Z,99752.84
2019-01-18T14:17:48.221Z,99753.11
2019-01-18T14:20:27.745Z,99756.84
2019-01-18T14:23:02.655Z,99760.41
2019-01-18T14:25:38.305Z,99758.14
2019-01-18T14:28:15.705Z,99757.88
2019-01-18T14:30:50.054Z,99764.97
2019-01-18T14:33:25.647Z,99766.95
2019-01-18T14:36:00.969Z,99762.48
2019-01-18T14:38:36.984Z,99762.95
2019-01-18T14:41:15.666Z,99766.70
2019-01-18T14:43:47.912Z,99770.22
2019-01-18T14:46:23.042Z,99772.11
2019-01-18T14:48:57.620Z,99776.15
2019-01-18T14:51:32.322Z,99772.94
2019-01-18T14:54:07.033Z,99779.42
2019-01-18T14:56:46.034Z,99781.75
2019-01-18T14:59:23.089Z,99786.79
2019-01-18T15:01:56.846Z,99778.30
2019-01-18T15:04:30.858Z,99778.59
2019-01-18T15:07:05.341Z,99774.68
2019-01-18T15:09:39.869Z,99775.08
2019-01-18T15:12:22.587Z,99768.31
2019-01-18T15:14:56.052Z,99769.15
2019-01-18T15:17:34.578Z,99765.87
2019-01-18T15:20:06.890Z,99758.63
2019-01-18T15:22:41.186Z,99761.23
2019-01-18T15:25:14.889Z,99758.06
2019-01-18T15:27:48.901Z,99748.83
2019-01-18T15:30:29.643Z,99749.97
2019-01-18T15:33:09.022Z,99751.90
2019-01-18T15:35:41.159Z,99744.59
2019-01-18T15:38:16.191Z,99743.69
2019-01-18T15:40:50.373Z,99742.48
2019-01-18T15:43:24.024Z,99738.42
2019-01-18T15:45:58.790Z,99733.94
2019-01-18T15:48:32.503Z,99728.64
2019-01-18T15:51:07.064Z,99728.98
2019-01-18T15:53:40.903Z,99737.39
2019-01-18T15:56:15.040Z,99731.11
2019-01-18T15:58:48.937Z,99727.25
2019-01-18T16:01:23.025Z,99737.47
2019-01-18T16:03:59.140Z,99728.09
2019-01-18T16:06:36.068Z,99730.22
2019-01-18T16:09:11.110Z,99727.31
2019-01-18T16:11:46.641Z,99730.38
2019-01-18T16:14:20.594Z,99730.78
2019-01-18T16:16:54.323Z,99725.25
2019-01-18T16:19:28.147Z,99729.41
2019-01-18T16:22:05.597Z,99725.80
2019-01-18T16:24:41.308Z,99725.76
2019-01-18T16:27:15.352Z,99728.44
2019-01-18T16:29:49.931Z,99728.16
2019-01-18T16:32:26.781Z,99724.92
2019-01-18T16:35:00.489Z,99733.36
2019-01-18T16:37:36.560Z,99730.33
2019-01-18T16:40:22.513Z,99733.36
2019-01-18T16:43:02.017Z,99746.77
2019-01-18T16:45:36.981Z,99742.41
2019-01-18T16:48:11.727Z,99739.18
2019-01-18T16:50:45.628Z,99732.67
2019-01-18T16:53:19.773Z,99732.63
2019-01-18T16:55:54.965Z,99731.73
2019-01-18T16:58:29.146Z,99731.34
2019-01-18T17:01:06.994Z,99731.34
2019-01-18T17:03:41.951Z,99724.64
2019-01-18T17:06:31.475Z,99723.08
2019-01-18T17:09:15.744Z,99721.99
2019-01-18T17:11:54.302Z,99735.19
2019-01-18T17:14:32.213Z,99742.25
2019-01-18T17:17:12.102Z,99750.20
2019-01-18T17:19:45.643Z,99756.44
2019-01-18T17:22:20.228Z,99751.52
2019-01-18T17:24:54.335Z,99748.27
2019-01-18T17:27:28.881Z,99746.61
2019-01-18T17:30:02.837Z,99739.60
2019-01-18T17:32:40.322Z,99743.98
2019-01-18T17:35:19.185Z,99745.39
2019-01-18T17:37:59.889Z,99748.69
2019-01-18T17:40:37.030Z,99761.00
2019-01-18T17:43:24.944Z,99771.70
2019-01-18T17:46:28.614Z,99770.16
2019-01-18T17:49:29.731Z,99767.03
2019-01-18T17:52:23.912Z,99776.51
2019-01-18T17:55:00.951Z,99768.09
2019-01-18T17:58:04.503Z,99768.17
2019-01-18T18:00:42.778Z,99773.30
2019-01-18T18:03:43.476Z,99771.45
2019-01-18T18:06:28.708Z,99774.05
2019-01-18T18:09:23.529Z,99778.05
2019-01-18T18:12:31.330Z,99772.77
2019-01-18T18:15:25.565Z,99771.69
2019-01-18T18:18:20.929Z,99759.71
2019-01-18T18:21:35.582Z,99761.91
2019-01-18T18:24:29.005Z,99767.37
2019-01-18T18:27:22.098Z,99761.02
2019-01-18T18:30:00.833Z,99759.59
2019-01-18T18:32:57.797Z,99763.34
2019-01-18T18:35:53.655Z,99756.05
2019-01-18T18:39:07.016Z,99748.70
2019-01-18T18:42:14.146Z,99743.20
2019-01-18T18:45:04.575Z,99736.72
2019-01-18T18:47:58.540Z,99734.27
2019-01-18T18:51:04.981Z,99741.51
2019-01-18T18:54:07.703Z,99735.45
2019-01-18T18:56:47.615Z,99728.94
2019-01-18T18:59:33.905Z,99735.00
2019-01-18T19:02:29.486Z,99728.99
2019-01-18T19:05:17.242Z,99740.02
2019-01-18T19:08:15.644Z,99732.23
2019-01-18T19:11:00.461Z,99732.23
2019-01-18T19:14:01.703Z,99728.81
2019-01-18T19:17:17.587Z,99730.14
2019-01-18T19:20:06.030Z,99729.80
2019-01-18T19:22:48.600Z,99728.50
2019-01-18T19:25:32.999Z,99733.56
2019-01-18T19:28:43.110Z,99728.79
2019-01-18T19:31:53.683Z,99721.96
2019-01-18T19:34:54.846Z,99714.97
2019-01-18T19:37:49.053Z,99714.48
2019-01-18T19:40:48.752Z,99709.16
2019-01-18T19:44:02.806Z,99714.34
2019-01-18T19:46:50.609Z,99718.26
2019-01-18T19:49:58.357Z,99714.89
2019-01-18T19:53:04.361Z,99726.28
2019-01-18T19:56:00.851Z,99725.88
2019-01-18T19:59:07.998Z,99719.84
2019-01-18T20:01:58.996Z,99729.13
2019-01-18T20:04:53.591Z,99729.63
2019-01-18T20:07:48.294Z,99737.20
2019-01-18T20:10:32.949Z,99733.02
2019-01-18T20:13:26.832Z,99718.78
2019-01-18T20:16:17.207Z,99701.67
2019-01-18T20:19:23.613Z,99701.67
2019-01-18T20:22:12.173Z,99705.56
2019-01-18T20:25:31.069Z,99695.75
2019-01-18T20:28:32.114Z,99703.15
2019-01-18T20:31:08.115Z,99702.20
2019-01-18T20:34:18.344Z,99688.59
2019-01-18T20:37:12.346Z,99694.27
2019-01-18T20:40:03.517Z,99685.03
2019-01-18T20:42:51.841Z,99688.40
2019-01-18T20:45:42.643Z,99693.41
2019-01-18T20:48:27.849Z,99702.52
2019-01-18T20:51:27.933Z,99707.10
2019-01-18T20:54:18.436Z,99720.83
2019-01-18T20:56:57.041Z,99711.45
2019-01-18T20:59:39.431Z,99709.68
2019-01-18T21:02:25.476Z,99703.89
2019-01-18T21:05:11.512Z,99706.11
2019-01-18T21:07:56.175Z,99703.58
2019-01-18T21:10:35.020Z,99698.50
2019-01-18T21:13:32.232Z,99691.03
2019-01-18T21:16:31.030Z,99684.66
2019-01-18T21:19:16.369Z,99681.36
2019-01-18T21:22:17.570Z,99691.08
2019-01-18T21:24:55.929Z,99705.36
2019-01-18T21:27:58.436Z,99696.14
2019-01-18T21:30:48.766Z,99701.67
2019-01-18T21:33:39.318Z,99702.98
2019-01-18T21:36:39.909Z,99702.84
2019-01-18T21:39:21.191Z,99693.80
2019-01-18T21:42:05.439Z,99688.87
2019-01-18T21:44:55.994Z,99693.81
2019-01-18T21:47:50.761Z,99689.26
2019-01-18T21:50:35.519Z,99684.00
2019-01-18T21:53:34.517Z,99680.72
2019-01-18T21:56:19.545Z,99680.72
2019-01-18T21:59:11.040Z,99686.11
2019-01-18T22:01:57.593Z,99693.94
2019-01-18T22:04:40.110Z,99686.94
2019-01-18T22:07:19.295Z,99694.03
2019-01-18T22:13:23.018Z,99699.44
2019-01-18T22:16:24.254Z,99698.46
2019-01-18T22:19:16.873Z,99697.94
2019-01-18T22:22:24.085Z,99704.06
2019-01-18T22:25:27.110Z,99700.37
2019-01-18T22:28:24.196Z,99706.56
2019-01-18T22:31:09.559Z,99711.02
2019-01-18T22:33:49.933Z,99701.91
2019-01-18T22:37:04.713Z,99702.16
2019-01-18T22:40:15.033Z,99702.16
2019-01-18T22:43:16.672Z,99714.19
2019-01-18T22:46:05.037Z,99722.48
2019-01-18T22:48:44.286Z,99716.34
2019-01-18T22:51:20.378Z,99718.42
2019-01-18T22:54:29.129Z,99713.34
2019-01-18T22:57:07.782Z,99721.63
2019-01-18T23:00:04.098Z,99719.46
2019-01-18T23:03:00.663Z,99721.27
2019-01-18T23:05:52.681Z,99724.40
2019-01-18T23:09:08.795Z,99709.25
2019-01-18T23:11:53.914Z,99711.48
2019-01-18T23:14:53.866Z,99706.26
2019-01-18T23:17:32.786Z,99701.77
2019-01-18T23:20:29.741Z,99698.42
2019-01-18T23:23:37.091Z,99705.86
2019-01-18T23:26:29.861Z,99701.33
2019-01-18T23:29:21.742Z,99700.62
2019-01-18T23:32:24.710Z,99703.53
2019-01-18T23:35:07.116Z,99700.76
2019-01-18T23:38:08.443Z,99699.98
2019-01-18T23:41:08.989Z,99703.67
2019-01-18T23:43:52.345Z,99702.78
2019-01-18T23:46:51.207Z,99702.34
2019-01-18T23:49:54.735Z,99697.06
2019-01-18T23:52:47.288Z,99703.35
2019-01-18T23:55:32.775Z,99709.87
2019-01-18T23:58:18.472Z,99712.37
